sensor_id;sensor_type;location;lat;lon;timestamp;temperature;humidity
24250;DHT22;12379;49.820;8.648;2023-01-20T00:02:09;-0.40;99.90
24250;DHT22;12379;49.820;8.648;2023-01-20T00:04:35;-0.30;99.90
24250;DHT22;12379;49.820;8.648;2023-01-20T00:07:01;-0.30;99.90
24250;DHT22;12379;49.820;8.648;2023-01-20T00:09:26;-0.30;99.90
24250;DHT22;12379;49.820;8.648;2023-01-20T00:11:52;-0.40;99.90
24250;DHT22;12379;49.820;8.648;2023-01-20T00:14:17;-0.40;99.90
24250;DHT22;12379;49.820;8.648;2023-01-20T00:16:43;-0.40;99.90
24250;DHT22;12379;49.820;8.648;2023-01-20T00:19:11;-0.50;99.90
24250;DHT22;12379;49.820;8.648;2023-01-20T00:21:36;-0.50;99.90
24250;DHT22;12379;49.820;8.648;2023-01-20T00:24:02;-0.40;99.90
24250;DHT22;12379;49.820;8.648;2023-01-20T00:26:28;-0.40;99.90
24250;DHT22;12379;49.820;8.648;2023-01-20T00:28:54;-0.40;99.90
24250;DHT22;12379;49.820;8.648;2023-01-20T00:31:22;-0.50;99.90
24250;DHT22;12379;49.820;8.648;2023-01-20T00:33:49;-0.50;99.90
24250;DHT22;12379;49.820;8.648;2023-01-20T00:36:16;-0.60;99.90
24250;DHT22;12379;49.820;8.648;2023-01-20T00:38:42;-0.60;99.90
24250;DHT22;12379;49.820;8.648;2023-01-20T00:41:08;-0.70;99.90
24250;DHT22;12379;49.820;8.648;2023-01-20T00:43:33;-0.70;99.90
24250;DHT22;12379;49.820;8.648;2023-01-20T00:45:59;-0.70;99.90
24250;DHT22;12379;49.820;8.648;2023-01-20T00:48:24;-0.70;99.90
24250;DHT22;12379;49.820;8.648;2023-01-20T00:50:50;-0.70;99.90
24250;DHT22;12379;49.820;8.648;2023-01-20T00:53:16;-0.60;99.90
24250;DHT22;12379;49.820;8.648;2023-01-20T00:55:41;-0.80;99.90
24250;DHT22;12379;49.820;8.648;2023-01-20T00:58:07;-0.80;99.90
24250;DHT22;12379;49.820;8.648;2023-01-20T01:00:33;-0.80;99.90
24250;DHT22;12379;49.820;8.648;2023-01-20T01:02:58;-0.90;99.90
24250;DHT22;12379;49.820;8.648;2023-01-20T01:05:24;-1.00;99.90
24250;DHT22;12379;49.820;8.648;2023-01-20T01:07:49;-0.90;99.90
24250;DHT22;12379;49.820;8.648;2023-01-20T01:10:15;-0.80;99.90
24250;DHT22;12379;49.820;8.648;2023-01-20T01:12:40;-0.90;99.90
24250;DHT22;12379;49.820;8.648;2023-01-20T01:15:06;-0.90;99.90
24250;DHT22;12379;49.820;8.648;2023-01-20T01:17:32;-0.90;99.90
24250;DHT22;12379;49.820;8.648;2023-01-20T01:19:58;-1.00;99.90
24250;DHT22;12379;49.820;8.648;2023-01-20T01:22:23;-1.00;99.90
24250;DHT22;12379;49.820;8.648;2023-01-20T01:24:49;-1.00;99.90
24250;DHT22;12379;49.820;8.648;2023-01-20T01:27:14;-1.00;99.90
24250;DHT22;12379;49.820;8.648;2023-01-20T01:29:40;-1.10;99.90
24250;DHT22;12379;49.820;8.648;2023-01-20T01:32:06;-1.10;99.90
24250;DHT22;12379;49.820;8.648;2023-01-20T01:34:32;-1.10;99.90
24250;DHT22;12379;49.820;8.648;2023-01-20T01:36:58;-1.10;99.90
24250;DHT22;12379;49.820;8.648;2023-01-20T01:39:26;-1.00;99.90
24250;DHT22;12379;49.820;8.648;2023-01-20T01:41:52;-1.10;99.90
24250;DHT22;12379;49.820;8.648;2023-01-20T01:44:17;-1.20;99.90
24250;DHT22;12379;49.820;8.648;2023-01-20T01:46:45;-1.20;99.90
24250;DHT22;12379;49.820;8.648;2023-01-20T01:49:21;-1.30;99.90
24250;DHT22;12379;49.820;8.648;2023-01-20T01:51:51;-1.30;99.90
24250;DHT22;12379;49.820;8.648;2023-01-20T01:54:22;-1.30;99.90
24250;DHT22;12379;49.820;8.648;2023-01-20T01:56:50;-1.30;99.90
24250;DHT22;12379;49.820;8.648;2023-01-20T01:59:16;-1.30;99.90
24250;DHT22;12379;49.820;8.648;2023-01-20T02:01:47;-1.30;99.90
24250;DHT22;12379;49.820;8.648;2023-01-20T02:04:16;-1.30;99.90
24250;DHT22;12379;49.820;8.648;2023-01-20T02:06:44;-1.30;99.90
24250;DHT22;12379;49.820;8.648;2023-01-20T02:09:11;-1.40;99.90
24250;DHT22;12379;49.820;8.648;2023-01-20T02:11:40;-1.40;99.90
24250;DHT22;12379;49.820;8.648;2023-01-20T02:14:09;-1.40;99.90
24250;DHT22;12379;49.820;8.648;2023-01-20T02:17:07;-1.40;99.90
24250;DHT22;12379;49.820;8.648;2023-01-20T02:25:11;-1.30;99.90
24250;DHT22;12379;49.820;8.648;2023-01-20T02:36:07;-1.30;99.90
24250;DHT22;12379;49.820;8.648;2023-01-20T02:38:48;-1.30;99.90
24250;DHT22;12379;49.820;8.648;2023-01-20T02:41:43;-1.30;99.90
24250;DHT22;12379;49.820;8.648;2023-01-20T02:44:21;-1.30;99.90
24250;DHT22;12379;49.820;8.648;2023-01-20T02:49:35;-1.10;99.90
24250;DHT22;12379;49.820;8.648;2023-01-20T02:52:31;-1.10;99.90
24250;DHT22;12379;49.820;8.648;2023-01-20T02:55:03;-1.10;99.90
24250;DHT22;12379;49.820;8.648;2023-01-20T02:57:34;-1.00;99.90
24250;DHT22;12379;49.820;8.648;2023-01-20T03:00:07;-1.10;99.90
24250;DHT22;12379;49.820;8.648;2023-01-20T03:02:35;-1.10;99.90
24250;DHT22;12379;49.820;8.648;2023-01-20T03:05:06;-1.10;99.90
24250;DHT22;12379;49.820;8.648;2023-01-20T03:07:35;-1.10;99.90
24250;DHT22;12379;49.820;8.648;2023-01-20T03:10:05;-1.00;99.90
24250;DHT22;12379;49.820;8.648;2023-01-20T03:15:06;-1.00;99.90
24250;DHT22;12379;49.820;8.648;2023-01-20T03:17:32;-0.90;99.90
24250;DHT22;12379;49.820;8.648;2023-01-20T03:19:59;-0.90;99.90
24250;DHT22;12379;49.820;8.648;2023-01-20T03:22:25;-1.00;99.90
24250;DHT22;12379;49.820;8.648;2023-01-20T03:24:51;-1.00;99.90
24250;DHT22;12379;49.820;8.648;2023-01-20T03:27:17;-0.90;99.90
24250;DHT22;12379;49.820;8.648;2023-01-20T03:29:42;-0.80;99.90
24250;DHT22;12379;49.820;8.648;2023-01-20T03:32:09;-0.90;99.90
24250;DHT22;12379;49.820;8.648;2023-01-20T03:34:38;-0.80;99.90
24250;DHT22;12379;49.820;8.648;2023-01-20T03:37:04;-0.70;99.90
24250;DHT22;12379;49.820;8.648;2023-01-20T03:39:31;-0.70;99.90
24250;DHT22;12379;49.820;8.648;2023-01-20T03:42:05;-0.80;99.90
24250;DHT22;12379;49.820;8.648;2023-01-20T03:50:20;-0.80;99.90
24250;DHT22;12379;49.820;8.648;2023-01-20T03:52:54;-0.90;99.90
24250;DHT22;12379;49.820;8.648;2023-01-20T03:55:29;-0.90;99.90
24250;DHT22;12379;49.820;8.648;2023-01-20T03:58:01;-0.90;99.90
24250;DHT22;12379;49.820;8.648;2023-01-20T04:00:31;-0.90;99.90
24250;DHT22;12379;49.820;8.648;2023-01-20T04:02:59;-0.90;99.90
24250;DHT22;12379;49.820;8.648;2023-01-20T04:05:26;-0.90;99.90
24250;DHT22;12379;49.820;8.648;2023-01-20T04:07:55;-1.00;99.90
24250;DHT22;12379;49.820;8.648;2023-01-20T04:10:23;-0.90;99.90
24250;DHT22;12379;49.820;8.648;2023-01-20T04:12:49;-0.90;99.90
24250;DHT22;12379;49.820;8.648;2023-01-20T04:15:15;-1.00;99.90
24250;DHT22;12379;49.820;8.648;2023-01-20T04:17:42;-1.00;99.90
24250;DHT22;12379;49.820;8.648;2023-01-20T04:20:09;-1.10;99.90
24250;DHT22;12379;49.820;8.648;2023-01-20T04:22:43;-1.10;99.90
24250;DHT22;12379;49.820;8.648;2023-01-20T04:25:29;-1.00;99.90
24250;DHT22;12379;49.820;8.648;2023-01-20T04:27:55;-1.10;99.90
24250;DHT22;12379;49.820;8.648;2023-01-20T04:30:21;-1.10;99.90
24250;DHT22;12379;49.820;8.648;2023-01-20T04:32:46;-1.10;99.90
24250;DHT22;12379;49.820;8.648;2023-01-20T04:35:13;-1.30;99.90
24250;DHT22;12379;49.820;8.648;2023-01-20T04:37:39;-1.30;99.90
24250;DHT22;12379;49.820;8.648;2023-01-20T04:40:05;-1.30;99.90
24250;DHT22;12379;49.820;8.648;2023-01-20T04:42:31;-1.40;99.90
24250;DHT22;12379;49.820;8.648;2023-01-20T04:44:56;-1.60;99.90
24250;DHT22;12379;49.820;8.648;2023-01-20T04:47:22;-1.60;99.90
24250;DHT22;12379;49.820;8.648;2023-01-20T04:49:47;-1.60;99.90
24250;DHT22;12379;49.820;8.648;2023-01-20T04:52:13;-1.70;99.90
24250;DHT22;12379;49.820;8.648;2023-01-20T04:54:38;-1.70;99.90
24250;DHT22;12379;49.820;8.648;2023-01-20T04:57:04;-1.70;99.90
24250;DHT22;12379;49.820;8.648;2023-01-20T04:59:29;-1.70;99.90
24250;DHT22;12379;49.820;8.648;2023-01-20T05:01:55;-1.70;99.90
24250;DHT22;12379;49.820;8.648;2023-01-20T05:04:20;-1.60;99.90
24250;DHT22;12379;49.820;8.648;2023-01-20T05:06:46;-1.70;99.90
24250;DHT22;12379;49.820;8.648;2023-01-20T05:09:13;-1.70;99.90
24250;DHT22;12379;49.820;8.648;2023-01-20T05:11:40;-1.80;99.90
24250;DHT22;12379;49.820;8.648;2023-01-20T05:14:05;-1.90;99.90
24250;DHT22;12379;49.820;8.648;2023-01-20T05:16:31;-1.90;99.90
24250;DHT22;12379;49.820;8.648;2023-01-20T05:18:58;-2.00;99.90
24250;DHT22;12379;49.820;8.648;2023-01-20T05:21:24;-2.00;99.90
24250;DHT22;12379;49.820;8.648;2023-01-20T05:23:52;-2.10;99.90
24250;DHT22;12379;49.820;8.648;2023-01-20T05:26:18;-2.10;99.90
24250;DHT22;12379;49.820;8.648;2023-01-20T05:28:45;-2.10;99.90
24250;DHT22;12379;49.820;8.648;2023-01-20T05:31:10;-2.20;99.90
24250;DHT22;12379;49.820;8.648;2023-01-20T05:33:36;-2.20;99.90
24250;DHT22;12379;49.820;8.648;2023-01-20T05:36:08;-2.20;99.90
24250;DHT22;12379;49.820;8.648;2023-01-20T05:38:33;-2.30;99.90
24250;DHT22;12379;49.820;8.648;2023-01-20T05:41:04;-2.30;99.90
24250;DHT22;12379;49.820;8.648;2023-01-20T05:43:30;-2.20;99.90
24250;DHT22;12379;49.820;8.648;2023-01-20T05:45:55;-2.20;99.90
24250;DHT22;12379;49.820;8.648;2023-01-20T05:48:21;-2.20;99.90
24250;DHT22;12379;49.820;8.648;2023-01-20T05:50:47;-2.20;99.90
24250;DHT22;12379;49.820;8.648;2023-01-20T05:53:13;-2.10;99.90
24250;DHT22;12379;49.820;8.648;2023-01-20T05:55:39;-2.10;99.90
24250;DHT22;12379;49.820;8.648;2023-01-20T05:58:05;-2.20;99.90
24250;DHT22;12379;49.820;8.648;2023-01-20T06:00:31;-2.20;99.90
24250;DHT22;12379;49.820;8.648;2023-01-20T06:02:57;-2.20;99.90
24250;DHT22;12379;49.820;8.648;2023-01-20T06:05:23;-2.30;99.90
24250;DHT22;12379;49.820;8.648;2023-01-20T06:07:49;-2.20;99.90
24250;DHT22;12379;49.820;8.648;2023-01-20T06:10:17;-2.30;99.90
24250;DHT22;12379;49.820;8.648;2023-01-20T06:12:43;-2.30;99.90
24250;DHT22;12379;49.820;8.648;2023-01-20T06:15:09;-2.40;99.90
24250;DHT22;12379;49.820;8.648;2023-01-20T06:17:35;-2.50;99.90
24250;DHT22;12379;49.820;8.648;2023-01-20T06:20:00;-2.50;99.90
24250;DHT22;12379;49.820;8.648;2023-01-20T06:22:26;-2.50;99.90
24250;DHT22;12379;49.820;8.648;2023-01-20T06:24:52;-2.50;99.90
24250;DHT22;12379;49.820;8.648;2023-01-20T06:27:18;-2.50;99.90
24250;DHT22;12379;49.820;8.648;2023-01-20T06:29:43;-2.50;99.90
24250;DHT22;12379;49.820;8.648;2023-01-20T06:32:09;-2.40;99.90
24250;DHT22;12379;49.820;8.648;2023-01-20T06:34:35;-2.40;99.90
24250;DHT22;12379;49.820;8.648;2023-01-20T06:37:03;-2.40;99.90
24250;DHT22;12379;49.820;8.648;2023-01-20T06:39:29;-2.40;99.90
24250;DHT22;12379;49.820;8.648;2023-01-20T06:41:58;-2.40;99.90
24250;DHT22;12379;49.820;8.648;2023-01-20T06:44:24;-2.40;99.90
24250;DHT22;12379;49.820;8.648;2023-01-20T06:46:50;-2.40;99.90
24250;DHT22;12379;49.820;8.648;2023-01-20T06:49:16;-2.40;99.90
24250;DHT22;12379;49.820;8.648;2023-01-20T06:51:42;-2.40;99.90
24250;DHT22;12379;49.820;8.648;2023-01-20T06:54:07;-2.40;99.90
24250;DHT22;12379;49.820;8.648;2023-01-20T06:56:33;-2.40;99.90
24250;DHT22;12379;49.820;8.648;2023-01-20T06:58:58;-2.30;99.90
24250;DHT22;12379;49.820;8.648;2023-01-20T07:01:27;-2.30;99.90
24250;DHT22;12379;49.820;8.648;2023-01-20T07:03:53;-2.30;99.90
24250;DHT22;12379;49.820;8.648;2023-01-20T07:06:28;-2.20;99.90
24250;DHT22;12379;49.820;8.648;2023-01-20T07:08:54;-2.20;99.90
24250;DHT22;12379;49.820;8.648;2023-01-20T07:11:21;-2.20;99.90
24250;DHT22;12379;49.820;8.648;2023-01-20T07:13:46;-2.20;99.90
24250;DHT22;12379;49.820;8.648;2023-01-20T07:16:12;-2.20;99.90
24250;DHT22;12379;49.820;8.648;2023-01-20T07:18:38;-2.20;99.90
24250;DHT22;12379;49.820;8.648;2023-01-20T07:21:04;-2.10;99.90
24250;DHT22;12379;49.820;8.648;2023-01-20T07:23:29;-2.10;99.90
24250;DHT22;12379;49.820;8.648;2023-01-20T07:26:02;-2.10;99.90
24250;DHT22;12379;49.820;8.648;2023-01-20T07:28:29;-2.10;99.90
24250;DHT22;12379;49.820;8.648;2023-01-20T07:30:55;-2.10;99.90
24250;DHT22;12379;49.820;8.648;2023-01-20T07:33:26;-2.00;99.90
24250;DHT22;12379;49.820;8.648;2023-01-20T07:35:52;-1.80;99.90
24250;DHT22;12379;49.820;8.648;2023-01-20T07:38:18;-1.70;99.90
24250;DHT22;12379;49.820;8.648;2023-01-20T07:40:44;-1.50;99.90
24250;DHT22;12379;49.820;8.648;2023-01-20T07:43:09;-1.50;99.90
24250;DHT22;12379;49.820;8.648;2023-01-20T07:45:35;-1.50;99.90
24250;DHT22;12379;49.820;8.648;2023-01-20T07:48:01;-1.10;99.90
24250;DHT22;12379;49.820;8.648;2023-01-20T07:50:28;-1.20;99.90
24250;DHT22;12379;49.820;8.648;2023-01-20T07:52:54;-1.20;99.90
24250;DHT22;12379;49.820;8.648;2023-01-20T07:55:19;-1.10;99.90
24250;DHT22;12379;49.820;8.648;2023-01-20T07:57:45;-1.10;99.90
24250;DHT22;12379;49.820;8.648;2023-01-20T08:00:12;-1.10;99.90
24250;DHT22;12379;49.820;8.648;2023-01-20T08:02:39;-0.90;99.90
24250;DHT22;12379;49.820;8.648;2023-01-20T08:05:05;-0.70;99.90
24250;DHT22;12379;49.820;8.648;2023-01-20T08:07:32;-0.60;99.90
24250;DHT22;12379;49.820;8.648;2023-01-20T08:09:59;-0.60;99.90
24250;DHT22;12379;49.820;8.648;2023-01-20T08:12:27;-0.30;99.90
24250;DHT22;12379;49.820;8.648;2023-01-20T08:14:54;-0.20;99.90
24250;DHT22;12379;49.820;8.648;2023-01-20T08:17:20;-0.20;99.90
24250;DHT22;12379;49.820;8.648;2023-01-20T08:19:46;-0.30;99.90
24250;DHT22;12379;49.820;8.648;2023-01-20T08:22:12;-0.20;99.90
24250;DHT22;12379;49.820;8.648;2023-01-20T08:24:39;-0.10;99.90
24250;DHT22;12379;49.820;8.648;2023-01-20T08:27:07;-0.20;99.90
24250;DHT22;12379;49.820;8.648;2023-01-20T08:29:33;0.10;99.90
24250;DHT22;12379;49.820;8.648;2023-01-20T08:32:00;0.10;99.90
24250;DHT22;12379;49.820;8.648;2023-01-20T08:34:26;0.00;99.90
24250;DHT22;12379;49.820;8.648;2023-01-20T08:36:53;-0.10;99.90
24250;DHT22;12379;49.820;8.648;2023-01-20T08:39:20;0.10;99.90
24250;DHT22;12379;49.820;8.648;2023-01-20T08:41:48;0.20;99.90
24250;DHT22;12379;49.820;8.648;2023-01-20T08:44:15;0.30;99.90
24250;DHT22;12379;49.820;8.648;2023-01-20T08:46:41;0.50;99.90
24250;DHT22;12379;49.820;8.648;2023-01-20T08:49:15;0.60;99.90
24250;DHT22;12379;49.820;8.648;2023-01-20T08:51:42;0.50;99.90
24250;DHT22;12379;49.820;8.648;2023-01-20T08:54:08;0.30;99.90
24250;DHT22;12379;49.820;8.648;2023-01-20T08:56:33;0.30;99.90
24250;DHT22;12379;49.820;8.648;2023-01-20T08:59:01;0.50;99.90
24250;DHT22;12379;49.820;8.648;2023-01-20T09:01:28;0.50;99.90
24250;DHT22;12379;49.820;8.648;2023-01-20T09:03:55;0.60;99.90
24250;DHT22;12379;49.820;8.648;2023-01-20T09:06:21;0.70;99.90
24250;DHT22;12379;49.820;8.648;2023-01-20T09:08:48;0.80;99.90
24250;DHT22;12379;49.820;8.648;2023-01-20T09:11:17;0.70;99.90
24250;DHT22;12379;49.820;8.648;2023-01-20T09:13:43;0.80;99.90
24250;DHT22;12379;49.820;8.648;2023-01-20T09:16:16;0.80;99.90
24250;DHT22;12379;49.820;8.648;2023-01-20T09:18:43;0.70;99.90
24250;DHT22;12379;49.820;8.648;2023-01-20T09:21:09;0.90;99.90
24250;DHT22;12379;49.820;8.648;2023-01-20T09:23:38;1.00;99.90
24250;DHT22;12379;49.820;8.648;2023-01-20T09:26:05;0.90;99.90
24250;DHT22;12379;49.820;8.648;2023-01-20T09:28:31;1.20;99.90
24250;DHT22;12379;49.820;8.648;2023-01-20T09:31:01;1.20;99.90
24250;DHT22;12379;49.820;8.648;2023-01-20T09:33:29;1.10;99.90
24250;DHT22;12379;49.820;8.648;2023-01-20T09:35:55;1.20;99.90
24250;DHT22;12379;49.820;8.648;2023-01-20T09:38:22;1.30;99.90
24250;DHT22;12379;49.820;8.648;2023-01-20T09:44:29;1.60;99.90
24250;DHT22;12379;49.820;8.648;2023-01-20T09:50:21;5.60;99.90
24250;DHT22;12379;49.820;8.648;2023-01-20T09:53:46;6.40;99.90
24250;DHT22;12379;49.820;8.648;2023-01-20T09:56:18;5.90;99.90
24250;DHT22;12379;49.820;8.648;2023-01-20T09:58:56;5.60;99.90
24250;DHT22;12379;49.820;8.648;2023-01-20T10:04:14;3.90;99.90
24250;DHT22;12379;49.820;8.648;2023-01-20T10:06:44;3.80;99.90
24250;DHT22;12379;49.820;8.648;2023-01-20T10:09:28;4.30;99.90
24250;DHT22;12379;49.820;8.648;2023-01-20T10:12:16;4.40;99.90
24250;DHT22;12379;49.820;8.648;2023-01-20T10:14:47;4.80;99.90
24250;DHT22;12379;49.820;8.648;2023-01-20T10:20:17;6.00;99.90
24250;DHT22;12379;49.820;8.648;2023-01-20T10:22:55;5.50;99.90
24250;DHT22;12379;49.820;8.648;2023-01-20T10:27:58;6.70;99.90
24250;DHT22;12379;49.820;8.648;2023-01-20T10:30:30;6.80;99.90
24250;DHT22;12379;49.820;8.648;2023-01-20T10:35:30;7.50;99.90
24250;DHT22;12379;49.820;8.648;2023-01-20T10:37:56;7.00;99.90
24250;DHT22;12379;49.820;8.648;2023-01-20T10:40:38;7.00;99.90
24250;DHT22;12379;49.820;8.648;2023-01-20T10:43:14;7.30;99.90
24250;DHT22;12379;49.820;8.648;2023-01-20T10:56:46;7.30;99.90
24250;DHT22;12379;49.820;8.648;2023-01-20T10:59:36;6.70;99.90
24250;DHT22;12379;49.820;8.648;2023-01-20T11:05:02;7.00;99.90
24250;DHT22;12379;49.820;8.648;2023-01-20T11:07:31;6.50;99.90
24250;DHT22;12379;49.820;8.648;2023-01-20T11:10:00;6.90;99.90
24250;DHT22;12379;49.820;8.648;2023-01-20T11:12:38;6.90;99.90
24250;DHT22;12379;49.820;8.648;2023-01-20T11:15:34;6.60;99.90
24250;DHT22;12379;49.820;8.648;2023-01-20T11:21:02;5.10;99.90
24250;DHT22;12379;49.820;8.648;2023-01-20T11:26:18;4.40;99.90
24250;DHT22;12379;49.820;8.648;2023-01-20T11:28:57;4.30;99.90
24250;DHT22;12379;49.820;8.648;2023-01-20T11:31:42;4.10;99.90
24250;DHT22;12379;49.820;8.648;2023-01-20T11:34:29;3.90;99.90
24250;DHT22;12379;49.820;8.648;2023-01-20T11:37:16;3.80;99.90
24250;DHT22;12379;49.820;8.648;2023-01-20T11:42:13;3.80;99.90
24250;DHT22;12379;49.820;8.648;2023-01-20T11:44:48;3.80;99.90
24250;DHT22;12379;49.820;8.648;2023-01-20T11:47:23;3.90;99.90
24250;DHT22;12379;49.820;8.648;2023-01-20T11:52:43;3.90;99.90
24250;DHT22;12379;49.820;8.648;2023-01-20T12:00:42;3.80;99.90
24250;DHT22;12379;49.820;8.648;2023-01-20T12:03:17;3.30;99.90
24250;DHT22;12379;49.820;8.648;2023-01-20T12:06:01;3.50;99.90
24250;DHT22;12379;49.820;8.648;2023-01-20T12:08:49;3.60;99.90
24250;DHT22;12379;49.820;8.648;2023-01-20T12:11:24;3.60;99.90
24250;DHT22;12379;49.820;8.648;2023-01-20T12:14:19;3.60;99.90
24250;DHT22;12379;49.820;8.648;2023-01-20T12:19:58;3.80;99.90
24250;DHT22;12379;49.820;8.648;2023-01-20T12:25:38;4.10;99.90
24250;DHT22;12379;49.820;8.648;2023-01-20T12:30:56;3.60;99.90
24250;DHT22;12379;49.820;8.648;2023-01-20T12:33:37;3.70;99.90
24250;DHT22;12379;49.820;8.648;2023-01-20T12:36:15;3.70;99.90
24250;DHT22;12379;49.820;8.648;2023-01-20T12:39:05;3.70;99.90
24250;DHT22;12379;49.820;8.648;2023-01-20T12:44:47;3.60;99.90
24250;DHT22;12379;49.820;8.648;2023-01-20T12:50:30;4.00;99.90
24250;DHT22;12379;49.820;8.648;2023-01-20T12:53:29;3.80;99.90
24250;DHT22;12379;49.820;8.648;2023-01-20T13:01:41;4.00;99.90
24250;DHT22;12379;49.820;8.648;2023-01-20T13:06:42;3.90;99.90
24250;DHT22;12379;49.820;8.648;2023-01-20T13:09:35;3.80;99.90
24250;DHT22;12379;49.820;8.648;2023-01-20T13:12:12;3.80;99.90
24250;DHT22;12379;49.820;8.648;2023-01-20T13:14:42;3.90;99.90
24250;DHT22;12379;49.820;8.648;2023-01-20T13:17:39;3.90;99.90
24250;DHT22;12379;49.820;8.648;2023-01-20T13:20:17;4.10;99.90
24250;DHT22;12379;49.820;8.648;2023-01-20T13:22:45;3.80;99.90
24250;DHT22;12379;49.820;8.648;2023-01-20T13:25:14;3.60;99.90
24250;DHT22;12379;49.820;8.648;2023-01-20T13:27:41;3.80;99.90
24250;DHT22;12379;49.820;8.648;2023-01-20T13:30:41;4.00;99.90
24250;DHT22;12379;49.820;8.648;2023-01-20T13:33:28;4.00;99.90
24250;DHT22;12379;49.820;8.648;2023-01-20T13:35:55;4.00;99.90
24250;DHT22;12379;49.820;8.648;2023-01-20T13:38:30;4.00;99.90
24250;DHT22;12379;49.820;8.648;2023-01-20T13:41:00;4.00;99.90
24250;DHT22;12379;49.820;8.648;2023-01-20T13:48:35;3.80;99.90
24250;DHT22;12379;49.820;8.648;2023-01-20T13:51:41;3.70;99.90
24250;DHT22;12379;49.820;8.648;2023-01-20T13:59:47;3.90;99.90
24250;DHT22;12379;49.820;8.648;2023-01-20T14:02:17;3.90;99.90
24250;DHT22;12379;49.820;8.648;2023-01-20T14:04:44;3.70;99.90
24250;DHT22;12379;49.820;8.648;2023-01-20T14:07:23;3.60;99.90
24250;DHT22;12379;49.820;8.648;2023-01-20T14:09:55;3.70;99.90
24250;DHT22;12379;49.820;8.648;2023-01-20T14:12:21;3.90;99.90
24250;DHT22;12379;49.820;8.648;2023-01-20T14:14:46;3.70;99.90
24250;DHT22;12379;49.820;8.648;2023-01-20T14:17:16;3.60;99.90
24250;DHT22;12379;49.820;8.648;2023-01-20T14:19:46;3.70;99.90
24250;DHT22;12379;49.820;8.648;2023-01-20T14:22:24;3.70;99.90
24250;DHT22;12379;49.820;8.648;2023-01-20T14:24:54;3.70;99.90
24250;DHT22;12379;49.820;8.648;2023-01-20T14:27:29;3.80;99.90
24250;DHT22;12379;49.820;8.648;2023-01-20T14:30:11;3.80;99.90
24250;DHT22;12379;49.820;8.648;2023-01-20T14:32:37;3.80;99.90
24250;DHT22;12379;49.820;8.648;2023-01-20T14:35:15;3.80;99.90
24250;DHT22;12379;49.820;8.648;2023-01-20T14:37:42;3.90;99.90
24250;DHT22;12379;49.820;8.648;2023-01-20T14:42:37;4.10;99.90
24250;DHT22;12379;49.820;8.648;2023-01-20T14:45:17;4.20;99.90
24250;DHT22;12379;49.820;8.648;2023-01-20T14:47:43;4.10;99.90
24250;DHT22;12379;49.820;8.648;2023-01-20T14:50:12;4.10;99.90
24250;DHT22;12379;49.820;8.648;2023-01-20T14:52:39;4.10;99.90
24250;DHT22;12379;49.820;8.648;2023-01-20T14:55:05;4.10;99.90
24250;DHT22;12379;49.820;8.648;2023-01-20T14:57:42;3.90;99.90
24250;DHT22;12379;49.820;8.648;2023-01-20T15:00:18;3.90;99.90
24250;DHT22;12379;49.820;8.648;2023-01-20T15:03:10;3.90;99.90
24250;DHT22;12379;49.820;8.648;2023-01-20T15:05:59;3.90;99.90
24250;DHT22;12379;49.820;8.648;2023-01-20T15:16:22;3.50;99.90
24250;DHT22;12379;49.820;8.648;2023-01-20T15:21:50;3.30;99.90
24250;DHT22;12379;49.820;8.648;2023-01-20T15:24:30;3.20;99.90
24250;DHT22;12379;49.820;8.648;2023-01-20T15:26:57;3.10;99.90
24250;DHT22;12379;49.820;8.648;2023-01-20T15:29:28;3.10;99.90
24250;DHT22;12379;49.820;8.648;2023-01-20T15:31:56;3.10;99.90
24250;DHT22;12379;49.820;8.648;2023-01-20T15:34:23;3.00;99.90
24250;DHT22;12379;49.820;8.648;2023-01-20T15:36:50;3.00;99.90
24250;DHT22;12379;49.820;8.648;2023-01-20T15:39:18;2.90;99.90
24250;DHT22;12379;49.820;8.648;2023-01-20T15:41:45;2.80;99.90
24250;DHT22;12379;49.820;8.648;2023-01-20T15:44:15;2.70;99.90
24250;DHT22;12379;49.820;8.648;2023-01-20T15:46:41;2.70;99.90
24250;DHT22;12379;49.820;8.648;2023-01-20T15:49:10;2.60;99.90
24250;DHT22;12379;49.820;8.648;2023-01-20T15:51:36;2.50;99.90
24250;DHT22;12379;49.820;8.648;2023-01-20T15:54:02;2.50;99.90
24250;DHT22;12379;49.820;8.648;2023-01-20T15:56:29;2.50;99.90
24250;DHT22;12379;49.820;8.648;2023-01-20T15:58:56;2.50;99.90
24250;DHT22;12379;49.820;8.648;2023-01-20T16:01:23;2.50;99.90
24250;DHT22;12379;49.820;8.648;2023-01-20T16:03:50;2.50;99.90
24250;DHT22;12379;49.820;8.648;2023-01-20T16:06:17;2.50;99.90
24250;DHT22;12379;49.820;8.648;2023-01-20T16:08:45;2.40;99.90
24250;DHT22;12379;49.820;8.648;2023-01-20T16:11:12;2.40;99.90
24250;DHT22;12379;49.820;8.648;2023-01-20T16:13:37;2.40;99.90
24250;DHT22;12379;49.820;8.648;2023-01-20T16:16:03;2.40;99.90
24250;DHT22;12379;49.820;8.648;2023-01-20T16:18:34;2.50;99.90
24250;DHT22;12379;49.820;8.648;2023-01-20T16:20:59;2.40;99.90
24250;DHT22;12379;49.820;8.648;2023-01-20T16:23:25;2.40;99.90
24250;DHT22;12379;49.820;8.648;2023-01-20T16:25:50;2.50;99.90
24250;DHT22;12379;49.820;8.648;2023-01-20T16:28:18;2.50;99.90
24250;DHT22;12379;49.820;8.648;2023-01-20T16:30:46;2.50;99.90
24250;DHT22;12379;49.820;8.648;2023-01-20T16:33:26;2.40;99.90
24250;DHT22;12379;49.820;8.648;2023-01-20T16:35:54;2.40;99.90
24250;DHT22;12379;49.820;8.648;2023-01-20T16:38:22;2.20;99.90
24250;DHT22;12379;49.820;8.648;2023-01-20T16:40:54;2.20;99.90
24250;DHT22;12379;49.820;8.648;2023-01-20T16:43:22;2.20;99.90
24250;DHT22;12379;49.820;8.648;2023-01-20T16:45:50;2.10;99.90
24250;DHT22;12379;49.820;8.648;2023-01-20T16:48:23;2.10;99.90
24250;DHT22;12379;49.820;8.648;2023-01-20T16:50:50;2.10;99.90
24250;DHT22;12379;49.820;8.648;2023-01-20T16:53:16;2.20;99.90
24250;DHT22;12379;49.820;8.648;2023-01-20T16:55:47;2.20;99.90
24250;DHT22;12379;49.820;8.648;2023-01-20T16:58:14;2.10;99.90
24250;DHT22;12379;49.820;8.648;2023-01-20T17:00:40;2.20;99.90
24250;DHT22;12379;49.820;8.648;2023-01-20T17:03:06;2.10;99.90
24250;DHT22;12379;49.820;8.648;2023-01-20T17:05:33;2.20;99.90
24250;DHT22;12379;49.820;8.648;2023-01-20T17:07:59;2.30;99.90
24250;DHT22;12379;49.820;8.648;2023-01-20T17:10:27;2.30;99.90
24250;DHT22;12379;49.820;8.648;2023-01-20T17:12:54;2.40;99.90
24250;DHT22;12379;49.820;8.648;2023-01-20T17:15:21;2.60;99.90
24250;DHT22;12379;49.820;8.648;2023-01-20T17:17:50;2.60;99.90
24250;DHT22;12379;49.820;8.648;2023-01-20T17:20:35;2.60;99.90
24250;DHT22;12379;49.820;8.648;2023-01-20T17:23:00;2.70;99.90
24250;DHT22;12379;49.820;8.648;2023-01-20T17:25:26;2.70;99.90
24250;DHT22;12379;49.820;8.648;2023-01-20T17:27:51;2.90;99.90
24250;DHT22;12379;49.820;8.648;2023-01-20T17:30:17;2.80;99.90
24250;DHT22;12379;49.820;8.648;2023-01-20T17:32:46;2.80;99.90
24250;DHT22;12379;49.820;8.648;2023-01-20T17:35:14;2.80;99.90
24250;DHT22;12379;49.820;8.648;2023-01-20T17:37:39;2.90;99.90
24250;DHT22;12379;49.820;8.648;2023-01-20T17:40:07;2.90;99.90
24250;DHT22;12379;49.820;8.648;2023-01-20T17:42:33;2.40;99.90
24250;DHT22;12379;49.820;8.648;2023-01-20T17:44:59;1.80;99.90
24250;DHT22;12379;49.820;8.648;2023-01-20T17:47:26;1.70;99.90
24250;DHT22;12379;49.820;8.648;2023-01-20T17:49:52;1.70;99.90
24250;DHT22;12379;49.820;8.648;2023-01-20T17:52:18;1.80;99.90
24250;DHT22;12379;49.820;8.648;2023-01-20T17:54:45;1.60;99.90